sensor_id;sensor_type;location;lat;lon;timestamp;temperature;humidity
4759;DHT22;2393;50.560;12.636;2024-01-25T00:00:54;6.90;99.90
4759;DHT22;2393;50.560;12.636;2024-01-25T00:03:23;6.90;99.90
4759;DHT22;2393;50.560;12.636;2024-01-25T00:05:52;6.90;99.90
4759;DHT22;2393;50.560;12.636;2024-01-25T00:08:22;6.90;99.90
4759;DHT22;2393;50.560;12.636;2024-01-25T00:10:53;6.90;99.90
4759;DHT22;2393;50.560;12.636;2024-01-25T00:13:22;6.90;99.90
4759;DHT22;2393;50.560;12.636;2024-01-25T00:15:52;6.90;99.90
4759;DHT22;2393;50.560;12.636;2024-01-25T00:18:21;6.90;99.90
4759;DHT22;2393;50.560;12.636;2024-01-25T00:20:50;6.90;99.90
4759;DHT22;2393;50.560;12.636;2024-01-25T00:23:20;6.80;99.90
4759;DHT22;2393;50.560;12.636;2024-01-25T00:25:49;6.90;99.90
4759;DHT22;2393;50.560;12.636;2024-01-25T00:28:19;6.90;99.90
4759;DHT22;2393;50.560;12.636;2024-01-25T00:30:48;6.90;99.90
4759;DHT22;2393;50.560;12.636;2024-01-25T00:33:17;6.80;99.90
4759;DHT22;2393;50.560;12.636;2024-01-25T00:35:48;6.80;99.90
4759;DHT22;2393;50.560;12.636;2024-01-25T00:38:17;6.80;99.90
4759;DHT22;2393;50.560;12.636;2024-01-25T00:40:47;6.70;99.90
4759;DHT22;2393;50.560;12.636;2024-01-25T00:43:16;6.80;99.90
4759;DHT22;2393;50.560;12.636;2024-01-25T00:45:48;6.70;99.90
4759;DHT22;2393;50.560;12.636;2024-01-25T00:48:17;6.80;99.90
4759;DHT22;2393;50.560;12.636;2024-01-25T00:50:47;6.70;99.90
4759;DHT22;2393;50.560;12.636;2024-01-25T00:53:17;6.70;99.90
4759;DHT22;2393;50.560;12.636;2024-01-25T00:55:46;6.70;99.90
4759;DHT22;2393;50.560;12.636;2024-01-25T00:58:16;6.80;99.90
4759;DHT22;2393;50.560;12.636;2024-01-25T01:00:47;6.70;99.90
4759;DHT22;2393;50.560;12.636;2024-01-25T01:03:18;6.70;99.90
4759;DHT22;2393;50.560;12.636;2024-01-25T01:05:47;6.70;99.90
4759;DHT22;2393;50.560;12.636;2024-01-25T01:08:17;6.70;99.90
4759;DHT22;2393;50.560;12.636;2024-01-25T01:10:46;6.70;99.90
4759;DHT22;2393;50.560;12.636;2024-01-25T01:13:15;6.70;99.90
4759;DHT22;2393;50.560;12.636;2024-01-25T01:15:44;6.70;99.90
4759;DHT22;2393;50.560;12.636;2024-01-25T01:18:14;6.70;99.90
4759;DHT22;2393;50.560;12.636;2024-01-25T01:20:43;6.70;99.90
4759;DHT22;2393;50.560;12.636;2024-01-25T01:23:13;6.70;99.90
4759;DHT22;2393;50.560;12.636;2024-01-25T01:25:42;6.70;99.90
4759;DHT22;2393;50.560;12.636;2024-01-25T01:28:11;6.70;99.90
4759;DHT22;2393;50.560;12.636;2024-01-25T01:30:40;6.70;99.90
4759;DHT22;2393;50.560;12.636;2024-01-25T01:33:11;6.70;99.90
4759;DHT22;2393;50.560;12.636;2024-01-25T01:35:42;6.70;99.90
4759;DHT22;2393;50.560;12.636;2024-01-25T01:38:11;6.70;99.90
4759;DHT22;2393;50.560;12.636;2024-01-25T01:40:40;6.70;99.90
4759;DHT22;2393;50.560;12.636;2024-01-25T01:43:18;6.60;99.90
4759;DHT22;2393;50.560;12.636;2024-01-25T01:45:47;6.70;99.90
4759;DHT22;2393;50.560;12.636;2024-01-25T01:48:16;6.60;99.90
4759;DHT22;2393;50.560;12.636;2024-01-25T01:50:47;6.60;99.90
4759;DHT22;2393;50.560;12.636;2024-01-25T01:53:17;6.60;99.90
4759;DHT22;2393;50.560;12.636;2024-01-25T01:55:46;6.70;99.90
4759;DHT22;2393;50.560;12.636;2024-01-25T01:58:15;6.70;99.90
4759;DHT22;2393;50.560;12.636;2024-01-25T02:00:46;6.60;99.90
4759;DHT22;2393;50.560;12.636;2024-01-25T02:03:18;6.60;99.90
4759;DHT22;2393;50.560;12.636;2024-01-25T02:05:49;6.60;99.90
4759;DHT22;2393;50.560;12.636;2024-01-25T02:08:18;6.60;99.90
4759;DHT22;2393;50.560;12.636;2024-01-25T02:10:47;6.60;99.90
4759;DHT22;2393;50.560;12.636;2024-01-25T02:13:16;6.60;99.90
4759;DHT22;2393;50.560;12.636;2024-01-25T02:15:45;6.60;99.90
4759;DHT22;2393;50.560;12.636;2024-01-25T02:18:15;6.60;99.90
4759;DHT22;2393;50.560;12.636;2024-01-25T02:20:44;6.60;99.90
4759;DHT22;2393;50.560;12.636;2024-01-25T02:23:15;6.50;99.90
4759;DHT22;2393;50.560;12.636;2024-01-25T02:25:48;6.60;99.90
4759;DHT22;2393;50.560;12.636;2024-01-25T02:28:18;6.50;99.90
4759;DHT22;2393;50.560;12.636;2024-01-25T02:30:47;6.50;99.90
4759;DHT22;2393;50.560;12.636;2024-01-25T02:33:17;6.50;99.90
4759;DHT22;2393;50.560;12.636;2024-01-25T02:35:46;6.50;99.90
4759;DHT22;2393;50.560;12.636;2024-01-25T02:38:17;6.50;99.90
4759;DHT22;2393;50.560;12.636;2024-01-25T02:40:45;6.50;99.90
4759;DHT22;2393;50.560;12.636;2024-01-25T02:43:14;6.50;99.90
4759;DHT22;2393;50.560;12.636;2024-01-25T02:45:43;6.50;99.90
4759;DHT22;2393;50.560;12.636;2024-01-25T02:48:12;6.40;99.90
4759;DHT22;2393;50.560;12.636;2024-01-25T02:50:42;6.40;99.90
4759;DHT22;2393;50.560;12.636;2024-01-25T02:53:11;6.40;99.90
4759;DHT22;2393;50.560;12.636;2024-01-25T02:55:41;6.40;99.90
4759;DHT22;2393;50.560;12.636;2024-01-25T02:58:11;6.40;99.90
4759;DHT22;2393;50.560;12.636;2024-01-25T03:00:41;6.30;99.90
4759;DHT22;2393;50.560;12.636;2024-01-25T03:03:10;6.40;99.90
4759;DHT22;2393;50.560;12.636;2024-01-25T03:05:41;6.40;99.90
4759;DHT22;2393;50.560;12.636;2024-01-25T03:08:11;6.30;99.90
4759;DHT22;2393;50.560;12.636;2024-01-25T03:10:41;6.40;99.90
4759;DHT22;2393;50.560;12.636;2024-01-25T03:13:11;6.30;99.90
4759;DHT22;2393;50.560;12.636;2024-01-25T03:15:40;6.30;99.90
4759;DHT22;2393;50.560;12.636;2024-01-25T03:18:08;6.40;99.90
4759;DHT22;2393;50.560;12.636;2024-01-25T03:20:38;6.40;99.90
4759;DHT22;2393;50.560;12.636;2024-01-25T03:23:08;6.40;99.90
4759;DHT22;2393;50.560;12.636;2024-01-25T03:25:37;6.40;99.90
4759;DHT22;2393;50.560;12.636;2024-01-25T03:28:08;6.40;99.90
4759;DHT22;2393;50.560;12.636;2024-01-25T03:30:39;6.40;99.90
4759;DHT22;2393;50.560;12.636;2024-01-25T03:33:10;6.40;99.90
4759;DHT22;2393;50.560;12.636;2024-01-25T03:35:39;6.40;99.90
4759;DHT22;2393;50.560;12.636;2024-01-25T03:38:08;6.40;99.90
4759;DHT22;2393;50.560;12.636;2024-01-25T03:40:38;6.40;99.90
4759;DHT22;2393;50.560;12.636;2024-01-25T03:43:10;6.40;99.90
4759;DHT22;2393;50.560;12.636;2024-01-25T03:45:48;6.40;99.90
4759;DHT22;2393;50.560;12.636;2024-01-25T03:48:18;6.40;99.90
4759;DHT22;2393;50.560;12.636;2024-01-25T03:50:47;6.40;99.90
4759;DHT22;2393;50.560;12.636;2024-01-25T03:53:17;6.50;99.90
4759;DHT22;2393;50.560;12.636;2024-01-25T03:55:47;6.40;99.90
4759;DHT22;2393;50.560;12.636;2024-01-25T03:58:19;6.40;99.90
4759;DHT22;2393;50.560;12.636;2024-01-25T04:00:48;6.40;99.90
4759;DHT22;2393;50.560;12.636;2024-01-25T04:03:17;6.40;99.90
4759;DHT22;2393;50.560;12.636;2024-01-25T04:05:46;6.40;99.90
4759;DHT22;2393;50.560;12.636;2024-01-25T04:08:14;6.40;99.90
4759;DHT22;2393;50.560;12.636;2024-01-25T04:10:43;6.40;99.90
4759;DHT22;2393;50.560;12.636;2024-01-25T04:13:12;6.40;99.90
4759;DHT22;2393;50.560;12.636;2024-01-25T04:15:43;6.40;99.90
4759;DHT22;2393;50.560;12.636;2024-01-25T04:18:12;6.40;99.90
4759;DHT22;2393;50.560;12.636;2024-01-25T04:20:41;6.30;99.90
4759;DHT22;2393;50.560;12.636;2024-01-25T04:23:11;6.40;99.90
4759;DHT22;2393;50.560;12.636;2024-01-25T04:25:40;6.40;99.90
4759;DHT22;2393;50.560;12.636;2024-01-25T04:28:10;6.40;99.90
4759;DHT22;2393;50.560;12.636;2024-01-25T04:30:39;6.40;99.90
4759;DHT22;2393;50.560;12.636;2024-01-25T04:33:10;6.30;99.90
4759;DHT22;2393;50.560;12.636;2024-01-25T04:35:39;6.30;99.90
4759;DHT22;2393;50.560;12.636;2024-01-25T04:38:08;6.30;99.90
4759;DHT22;2393;50.560;12.636;2024-01-25T04:40:37;6.30;99.90
4759;DHT22;2393;50.560;12.636;2024-01-25T04:43:06;6.40;99.90
4759;DHT22;2393;50.560;12.636;2024-01-25T04:45:36;6.30;99.90
4759;DHT22;2393;50.560;12.636;2024-01-25T04:48:06;6.30;99.90
4759;DHT22;2393;50.560;12.636;2024-01-25T04:50:37;6.30;99.90
4759;DHT22;2393;50.560;12.636;2024-01-25T04:53:09;6.20;99.90
4759;DHT22;2393;50.560;12.636;2024-01-25T04:55:38;6.20;99.90
4759;DHT22;2393;50.560;12.636;2024-01-25T04:58:07;6.20;99.90
4759;DHT22;2393;50.560;12.636;2024-01-25T05:00:36;6.20;99.90
4759;DHT22;2393;50.560;12.636;2024-01-25T05:03:07;6.10;99.90
4759;DHT22;2393;50.560;12.636;2024-01-25T05:05:38;6.10;99.90
4759;DHT22;2393;50.560;12.636;2024-01-25T05:08:08;6.20;99.90
4759;DHT22;2393;50.560;12.636;2024-01-25T05:10:38;6.10;99.90
4759;DHT22;2393;50.560;12.636;2024-01-25T05:13:08;6.20;99.90
4759;DHT22;2393;50.560;12.636;2024-01-25T05:15:37;6.10;99.90
4759;DHT22;2393;50.560;12.636;2024-01-25T05:18:08;6.10;99.90
4759;DHT22;2393;50.560;12.636;2024-01-25T05:20:41;6.00;99.90
4759;DHT22;2393;50.560;12.636;2024-01-25T05:23:11;6.00;99.90
4759;DHT22;2393;50.560;12.636;2024-01-25T05:25:40;6.00;99.90
4759;DHT22;2393;50.560;12.636;2024-01-25T05:28:09;6.00;99.90
4759;DHT22;2393;50.560;12.636;2024-01-25T05:30:39;6.00;99.90
4759;DHT22;2393;50.560;12.636;2024-01-25T05:33:08;6.00;99.90
4759;DHT22;2393;50.560;12.636;2024-01-25T05:35:38;6.00;99.90
4759;DHT22;2393;50.560;12.636;2024-01-25T05:38:09;5.90;99.90
4759;DHT22;2393;50.560;12.636;2024-01-25T05:40:38;6.00;99.90
4759;DHT22;2393;50.560;12.636;2024-01-25T05:43:07;5.90;99.90
4759;DHT22;2393;50.560;12.636;2024-01-25T05:45:36;5.90;99.90
4759;DHT22;2393;50.560;12.636;2024-01-25T05:48:06;5.90;99.90
4759;DHT22;2393;50.560;12.636;2024-01-25T05:50:35;5.90;99.90
4759;DHT22;2393;50.560;12.636;2024-01-25T05:53:05;5.90;99.90
4759;DHT22;2393;50.560;12.636;2024-01-25T05:55:36;5.90;99.90
4759;DHT22;2393;50.560;12.636;2024-01-25T05:58:05;5.90;99.90
4759;DHT22;2393;50.560;12.636;2024-01-25T06:00:34;5.80;99.90
4759;DHT22;2393;50.560;12.636;2024-01-25T06:03:03;5.90;99.90
4759;DHT22;2393;50.560;12.636;2024-01-25T06:05:34;5.80;99.90
4759;DHT22;2393;50.560;12.636;2024-01-25T06:08:04;5.90;99.90
4759;DHT22;2393;50.560;12.636;2024-01-25T06:10:33;5.90;99.90
4759;DHT22;2393;50.560;12.636;2024-01-25T06:13:04;5.90;99.90
4759;DHT22;2393;50.560;12.636;2024-01-25T06:15:33;5.90;99.90
4759;DHT22;2393;50.560;12.636;2024-01-25T06:18:03;5.90;99.90
4759;DHT22;2393;50.560;12.636;2024-01-25T06:20:32;5.90;99.90
4759;DHT22;2393;50.560;12.636;2024-01-25T06:23:00;5.90;99.90
4759;DHT22;2393;50.560;12.636;2024-01-25T06:25:29;5.80;99.90
4759;DHT22;2393;50.560;12.636;2024-01-25T06:27:58;5.80;99.90
4759;DHT22;2393;50.560;12.636;2024-01-25T06:30:32;5.80;99.90
4759;DHT22;2393;50.560;12.636;2024-01-25T06:33:00;5.80;99.90
4759;DHT22;2393;50.560;12.636;2024-01-25T06:35:29;5.80;99.90
4759;DHT22;2393;50.560;12.636;2024-01-25T06:37:59;5.80;99.90
4759;DHT22;2393;50.560;12.636;2024-01-25T06:40:29;5.70;99.90
4759;DHT22;2393;50.560;12.636;2024-01-25T06:42:58;5.70;99.90
4759;DHT22;2393;50.560;12.636;2024-01-25T06:45:27;5.80;99.90
4759;DHT22;2393;50.560;12.636;2024-01-25T06:47:58;5.70;99.90
4759;DHT22;2393;50.560;12.636;2024-01-25T06:50:28;5.70;99.90
4759;DHT22;2393;50.560;12.636;2024-01-25T06:52:57;5.70;99.90
4759;DHT22;2393;50.560;12.636;2024-01-25T06:55:26;5.80;99.90
4759;DHT22;2393;50.560;12.636;2024-01-25T06:57:56;5.80;99.90
4759;DHT22;2393;50.560;12.636;2024-01-25T07:00:25;5.70;99.90
4759;DHT22;2393;50.560;12.636;2024-01-25T07:02:54;5.70;99.90
4759;DHT22;2393;50.560;12.636;2024-01-25T07:05:25;5.70;99.90
4759;DHT22;2393;50.560;12.636;2024-01-25T07:07:57;5.70;99.90
4759;DHT22;2393;50.560;12.636;2024-01-25T07:10:27;5.70;99.90
4759;DHT22;2393;50.560;12.636;2024-01-25T07:12:56;5.70;99.90
4759;DHT22;2393;50.560;12.636;2024-01-25T07:15:25;5.70;99.90
4759;DHT22;2393;50.560;12.636;2024-01-25T07:17:54;5.70;99.90
4759;DHT22;2393;50.560;12.636;2024-01-25T07:20:25;5.70;99.90
4759;DHT22;2393;50.560;12.636;2024-01-25T07:22:54;5.70;99.90
4759;DHT22;2393;50.560;12.636;2024-01-25T07:25:23;5.80;99.90
4759;DHT22;2393;50.560;12.636;2024-01-25T07:27:52;5.70;99.90
4759;DHT22;2393;50.560;12.636;2024-01-25T07:30:21;5.70;99.90
4759;DHT22;2393;50.560;12.636;2024-01-25T07:32:50;5.70;99.90
4759;DHT22;2393;50.560;12.636;2024-01-25T07:35:20;5.70;99.90
4759;DHT22;2393;50.560;12.636;2024-01-25T07:37:52;5.60;99.90
4759;DHT22;2393;50.560;12.636;2024-01-25T07:40:21;5.70;99.90
4759;DHT22;2393;50.560;12.636;2024-01-25T07:42:50;5.70;99.90
4759;DHT22;2393;50.560;12.636;2024-01-25T07:45:19;5.60;99.90
4759;DHT22;2393;50.560;12.636;2024-01-25T07:47:48;5.60;99.90
4759;DHT22;2393;50.560;12.636;2024-01-25T07:50:29;5.60;99.90
4759;DHT22;2393;50.560;12.636;2024-01-25T07:53:00;5.60;99.90
4759;DHT22;2393;50.560;12.636;2024-01-25T07:55:31;5.70;99.90
4759;DHT22;2393;50.560;12.636;2024-01-25T07:58:00;5.70;99.90
4759;DHT22;2393;50.560;12.636;2024-01-25T08:00:29;5.70;99.90
4759;DHT22;2393;50.560;12.636;2024-01-25T08:02:58;5.60;99.90
4759;DHT22;2393;50.560;12.636;2024-01-25T08:05:28;5.60;99.90
4759;DHT22;2393;50.560;12.636;2024-01-25T08:08:12;5.70;99.90
4759;DHT22;2393;50.560;12.636;2024-01-25T08:10:41;5.60;99.90
4759;DHT22;2393;50.560;12.636;2024-01-25T08:13:13;5.70;99.90
4759;DHT22;2393;50.560;12.636;2024-01-25T08:15:43;5.70;99.90
4759;DHT22;2393;50.560;12.636;2024-01-25T08:18:12;5.70;99.90
4759;DHT22;2393;50.560;12.636;2024-01-25T08:20:41;5.80;99.90
4759;DHT22;2393;50.560;12.636;2024-01-25T08:23:12;5.90;99.90
4759;DHT22;2393;50.560;12.636;2024-01-25T08:25:42;5.90;99.90
4759;DHT22;2393;50.560;12.636;2024-01-25T08:28:10;5.90;99.90
4759;DHT22;2393;50.560;12.636;2024-01-25T08:30:39;6.00;99.90
4759;DHT22;2393;50.560;12.636;2024-01-25T08:33:08;6.00;99.90
4759;DHT22;2393;50.560;12.636;2024-01-25T08:35:37;6.00;99.90
4759;DHT22;2393;50.560;12.636;2024-01-25T08:38:08;6.00;99.90
4759;DHT22;2393;50.560;12.636;2024-01-25T08:40:39;6.10;99.90
4759;DHT22;2393;50.560;12.636;2024-01-25T08:43:08;6.10;99.90
4759;DHT22;2393;50.560;12.636;2024-01-25T08:45:36;6.10;99.90
4759;DHT22;2393;50.560;12.636;2024-01-25T08:48:06;6.10;99.90
4759;DHT22;2393;50.560;12.636;2024-01-25T08:50:36;6.10;99.90
4759;DHT22;2393;50.560;12.636;2024-01-25T08:53:05;6.20;99.90
4759;DHT22;2393;50.560;12.636;2024-01-25T08:55:34;6.20;99.90
4759;DHT22;2393;50.560;12.636;2024-01-25T08:58:05;6.20;99.90
4759;DHT22;2393;50.560;12.636;2024-01-25T09:00:34;6.20;99.90
4759;DHT22;2393;50.560;12.636;2024-01-25T09:03:04;6.20;99.90
4759;DHT22;2393;50.560;12.636;2024-01-25T09:05:33;6.20;99.90
4759;DHT22;2393;50.560;12.636;2024-01-25T09:08:08;6.20;99.90
4759;DHT22;2393;50.560;12.636;2024-01-25T09:10:37;6.20;99.90
4759;DHT22;2393;50.560;12.636;2024-01-25T09:13:08;6.30;99.90
4759;DHT22;2393;50.560;12.636;2024-01-25T09:15:38;6.40;99.90
4759;DHT22;2393;50.560;12.636;2024-01-25T09:18:08;6.60;99.90
4759;DHT22;2393;50.560;12.636;2024-01-25T09:20:37;6.70;99.90
4759;DHT22;2393;50.560;12.636;2024-01-25T09:23:06;6.90;99.90
4759;DHT22;2393;50.560;12.636;2024-01-25T09:25:35;7.20;99.90
4759;DHT22;2393;50.560;12.636;2024-01-25T09:28:05;7.40;99.90
4759;DHT22;2393;50.560;12.636;2024-01-25T09:30:36;7.60;99.90
4759;DHT22;2393;50.560;12.636;2024-01-25T09:33:05;7.60;99.90
4759;DHT22;2393;50.560;12.636;2024-01-25T09:35:34;7.80;99.90
4759;DHT22;2393;50.560;12.636;2024-01-25T09:38:04;7.90;99.90
4759;DHT22;2393;50.560;12.636;2024-01-25T09:40:32;8.20;99.90
4759;DHT22;2393;50.560;12.636;2024-01-25T09:43:04;8.50;99.90
4759;DHT22;2393;50.560;12.636;2024-01-25T09:45:35;8.70;99.90
4759;DHT22;2393;50.560;12.636;2024-01-25T09:48:04;9.00;99.90
4759;DHT22;2393;50.560;12.636;2024-01-25T09:50:35;9.20;99.90
4759;DHT22;2393;50.560;12.636;2024-01-25T09:53:05;9.20;99.90
4759;DHT22;2393;50.560;12.636;2024-01-25T09:55:40;9.20;99.90
4759;DHT22;2393;50.560;12.636;2024-01-25T09:58:10;9.20;99.90
4759;DHT22;2393;50.560;12.636;2024-01-25T10:00:41;9.10;99.90
4759;DHT22;2393;50.560;12.636;2024-01-25T10:03:10;8.80;99.90
4759;DHT22;2393;50.560;12.636;2024-01-25T10:05:38;8.70;99.90
4759;DHT22;2393;50.560;12.636;2024-01-25T10:08:12;8.60;99.90
4759;DHT22;2393;50.560;12.636;2024-01-25T10:10:48;8.40;99.90
4759;DHT22;2393;50.560;12.636;2024-01-25T10:13:20;8.30;99.90
4759;DHT22;2393;50.560;12.636;2024-01-25T10:15:51;8.10;99.90
4759;DHT22;2393;50.560;12.636;2024-01-25T10:18:19;7.90;99.90
4759;DHT22;2393;50.560;12.636;2024-01-25T10:20:56;7.80;99.90
4759;DHT22;2393;50.560;12.636;2024-01-25T10:23:26;7.60;99.90
4759;DHT22;2393;50.560;12.636;2024-01-25T10:25:57;7.60;99.90
4759;DHT22;2393;50.560;12.636;2024-01-25T10:28:27;7.60;99.90
4759;DHT22;2393;50.560;12.636;2024-01-25T10:31:01;7.50;99.90
4759;DHT22;2393;50.560;12.636;2024-01-25T10:33:32;7.30;99.90
4759;DHT22;2393;50.560;12.636;2024-01-25T10:36:05;7.30;99.90
4759;DHT22;2393;50.560;12.636;2024-01-25T10:38:36;7.30;99.90
4759;DHT22;2393;50.560;12.636;2024-01-25T10:41:06;7.20;99.90
4759;DHT22;2393;50.560;12.636;2024-01-25T10:43:35;7.20;99.90
4759;DHT22;2393;50.560;12.636;2024-01-25T10:46:06;7.20;99.90
4759;DHT22;2393;50.560;12.636;2024-01-25T10:48:37;7.30;99.90
4759;DHT22;2393;50.560;12.636;2024-01-25T10:51:07;7.40;99.90
4759;DHT22;2393;50.560;12.636;2024-01-25T10:53:40;7.40;99.90
4759;DHT22;2393;50.560;12.636;2024-01-25T10:56:08;7.40;99.90
4759;DHT22;2393;50.560;12.636;2024-01-25T10:58:40;7.40;99.90
4759;DHT22;2393;50.560;12.636;2024-01-25T11:01:11;7.40;99.90
4759;DHT22;2393;50.560;12.636;2024-01-25T11:03:45;7.40;99.90
4759;DHT22;2393;50.560;12.636;2024-01-25T11:06:16;7.40;99.90
4759;DHT22;2393;50.560;12.636;2024-01-25T11:08:46;7.40;99.90
4759;DHT22;2393;50.560;12.636;2024-01-25T11:11:15;7.30;99.90
4759;DHT22;2393;50.560;12.636;2024-01-25T11:13:44;7.20;99.90
4759;DHT22;2393;50.560;12.636;2024-01-25T11:16:16;7.30;99.90
4759;DHT22;2393;50.560;12.636;2024-01-25T11:18:50;7.50;99.90
4759;DHT22;2393;50.560;12.636;2024-01-25T11:21:26;7.50;99.90
4759;DHT22;2393;50.560;12.636;2024-01-25T11:24:00;7.60;99.90
4759;DHT22;2393;50.560;12.636;2024-01-25T11:26:35;7.60;99.90
4759;DHT22;2393;50.560;12.636;2024-01-25T11:29:04;7.70;99.90
4759;DHT22;2393;50.560;12.636;2024-01-25T11:31:34;7.80;99.90
4759;DHT22;2393;50.560;12.636;2024-01-25T11:34:03;7.80;99.90
4759;DHT22;2393;50.560;12.636;2024-01-25T11:36:33;7.80;99.90
4759;DHT22;2393;50.560;12.636;2024-01-25T11:39:02;7.80;99.90
4759;DHT22;2393;50.560;12.636;2024-01-25T11:41:33;7.80;99.90
4759;DHT22;2393;50.560;12.636;2024-01-25T11:44:03;8.30;99.90
4759;DHT22;2393;50.560;12.636;2024-01-25T11:46:31;8.60;99.90
4759;DHT22;2393;50.560;12.636;2024-01-25T11:49:06;8.90;99.90
4759;DHT22;2393;50.560;12.636;2024-01-25T11:51:35;9.20;99.90
4759;DHT22;2393;50.560;12.636;2024-01-25T11:54:04;9.30;99.90
4759;DHT22;2393;50.560;12.636;2024-01-25T11:56:39;9.40;99.90
4759;DHT22;2393;50.560;12.636;2024-01-25T11:59:10;9.50;99.90
4759;DHT22;2393;50.560;12.636;2024-01-25T12:01:39;9.70;99.90
4759;DHT22;2393;50.560;12.636;2024-01-25T12:04:11;10.00;99.90
4759;DHT22;2393;50.560;12.636;2024-01-25T12:06:40;10.40;99.90
4759;DHT22;2393;50.560;12.636;2024-01-25T12:09:11;10.60;99.90
4759;DHT22;2393;50.560;12.636;2024-01-25T12:11:41;10.50;99.90
4759;DHT22;2393;50.560;12.636;2024-01-25T12:14:10;10.30;99.90
4759;DHT22;2393;50.560;12.636;2024-01-25T12:16:39;10.10;99.90
4759;DHT22;2393;50.560;12.636;2024-01-25T12:19:08;9.90;99.90
4759;DHT22;2393;50.560;12.636;2024-01-25T12:21:38;9.70;99.90
4759;DHT22;2393;50.560;12.636;2024-01-25T12:24:08;9.40;99.90
4759;DHT22;2393;50.560;12.636;2024-01-25T12:26:37;9.20;99.90
4759;DHT22;2393;50.560;12.636;2024-01-25T12:29:07;9.00;99.90
4759;DHT22;2393;50.560;12.636;2024-01-25T12:31:38;8.80;99.90
4759;DHT22;2393;50.560;12.636;2024-01-25T12:34:13;8.60;99.90
4759;DHT22;2393;50.560;12.636;2024-01-25T12:36:46;8.40;99.90
4759;DHT22;2393;50.560;12.636;2024-01-25T12:39:14;8.30;99.90
4759;DHT22;2393;50.560;12.636;2024-01-25T12:41:47;8.20;99.90
4759;DHT22;2393;50.560;12.636;2024-01-25T12:44:18;8.10;99.90
4759;DHT22;2393;50.560;12.636;2024-01-25T12:46:47;8.00;99.90
4759;DHT22;2393;50.560;12.636;2024-01-25T12:49:17;7.90;99.90
4759;DHT22;2393;50.560;12.636;2024-01-25T12:51:50;7.90;99.90
4759;DHT22;2393;50.560;12.636;2024-01-25T12:54:20;7.70;99.90
4759;DHT22;2393;50.560;12.636;2024-01-25T12:56:50;7.70;99.90
4759;DHT22;2393;50.560;12.636;2024-01-25T12:59:20;7.60;99.90
4759;DHT22;2393;50.560;12.636;2024-01-25T13:01:48;7.60;99.90
4759;DHT22;2393;50.560;12.636;2024-01-25T13:04:18;7.40;99.90
4759;DHT22;2393;50.560;12.636;2024-01-25T13:06:51;7.30;99.90
4759;DHT22;2393;50.560;12.636;2024-01-25T13:09:21;7.30;99.90
4759;DHT22;2393;50.560;12.636;2024-01-25T13:11:50;7.30;99.90
4759;DHT22;2393;50.560;12.636;2024-01-25T13:14:22;7.30;99.90
4759;DHT22;2393;50.560;12.636;2024-01-25T13:16:51;7.40;99.90
4759;DHT22;2393;50.560;12.636;2024-01-25T13:19:20;7.40;99.90
4759;DHT22;2393;50.560;12.636;2024-01-25T13:21:52;7.40;99.90
4759;DHT22;2393;50.560;12.636;2024-01-25T13:24:22;7.40;99.90
4759;DHT22;2393;50.560;12.636;2024-01-25T13:26:50;7.30;99.90
4759;DHT22;2393;50.560;12.636;2024-01-25T13:29:19;7.30;99.90
4759;DHT22;2393;50.560;12.636;2024-01-25T13:31:48;7.30;99.90
4759;DHT22;2393;50.560;12.636;2024-01-25T13:34:17;7.30;99.90
4759;DHT22;2393;50.560;12.636;2024-01-25T13:36:46;7.40;99.90
4759;DHT22;2393;50.560;12.636;2024-01-25T13:39:19;7.40;99.90
4759;DHT22;2393;50.560;12.636;2024-01-25T13:41:49;7.50;99.90
4759;DHT22;2393;50.560;12.636;2024-01-25T13:44:18;7.60;99.90
4759;DHT22;2393;50.560;12.636;2024-01-25T13:46:48;7.50;99.90
4759;DHT22;2393;50.560;12.636;2024-01-25T13:49:19;7.50;99.90
4759;DHT22;2393;50.560;12.636;2024-01-25T13:51:48;7.60;99.90
4759;DHT22;2393;50.560;12.636;2024-01-25T13:54:19;7.50;99.90
4759;DHT22;2393;50.560;12.636;2024-01-25T13:56:48;7.50;99.90
4759;DHT22;2393;50.560;12.636;2024-01-25T13:59:18;7.40;99.90
4759;DHT22;2393;50.560;12.636;2024-01-25T14:01:47;7.40;99.90
4759;DHT22;2393;50.560;12.636;2024-01-25T14:04:17;7.30;99.90
4759;DHT22;2393;50.560;12.636;2024-01-25T14:06:46;7.30;99.90
4759;DHT22;2393;50.560;12.636;2024-01-25T14:09:16;7.10;99.90
4759;DHT22;2393;50.560;12.636;2024-01-25T14:11:48;7.00;99.90
4759;DHT22;2393;50.560;12.636;2024-01-25T14:14:18;7.00;99.90
4759;DHT22;2393;50.560;12.636;2024-01-25T14:16:48;7.00;99.90
4759;DHT22;2393;50.560;12.636;2024-01-25T14:19:17;7.00;99.90
4759;DHT22;2393;50.560;12.636;2024-01-25T14:21:48;6.90;99.90
4759;DHT22;2393;50.560;12.636;2024-01-25T14:24:38;6.90;99.90
4759;DHT22;2393;50.560;12.636;2024-01-25T14:27:08;6.80;99.90
4759;DHT22;2393;50.560;12.636;2024-01-25T14:29:38;6.80;99.90
4759;DHT22;2393;50.560;12.636;2024-01-25T14:32:07;6.80;99.90
4759;DHT22;2393;50.560;12.636;2024-01-25T14:34:36;6.80;99.90
4759;DHT22;2393;50.560;12.636;2024-01-25T14:37:05;6.80;99.90
4759;DHT22;2393;50.560;12.636;2024-01-25T14:39:35;6.70;99.90
4759;DHT22;2393;50.560;12.636;2024-01-25T14:42:10;6.70;99.90
4759;DHT22;2393;50.560;12.636;2024-01-25T14:44:39;6.60;99.90
4759;DHT22;2393;50.560;12.636;2024-01-25T14:47:12;6.60;99.90
4759;DHT22;2393;50.560;12.636;2024-01-25T14:49:41;6.50;99.90
4759;DHT22;2393;50.560;12.636;2024-01-25T14:52:10;6.60;99.90
4759;DHT22;2393;50.560;12.636;2024-01-25T14:54:39;6.50;99.90
4759;DHT22;2393;50.560;12.636;2024-01-25T14:57:11;6.50;99.90
4759;DHT22;2393;50.560;12.636;2024-01-25T14:59:40;6.40;99.90
4759;DHT22;2393;50.560;12.636;2024-01-25T15:02:10;6.40;99.90
4759;DHT22;2393;50.560;12.636;2024-01-25T15:04:39;6.40;99.90
4759;DHT22;2393;50.560;12.636;2024-01-25T15:07:09;6.40;99.90
4759;DHT22;2393;50.560;12.636;2024-01-25T15:09:38;6.40;99.90
4759;DHT22;2393;50.560;12.636;2024-01-25T15:12:08;6.30;99.90
4759;DHT22;2393;50.560;12.636;2024-01-25T15:14:38;6.20;99.90
4759;DHT22;2393;50.560;12.636;2024-01-25T15:17:07;6.20;99.90
4759;DHT22;2393;50.560;12.636;2024-01-25T15:19:36;6.10;99.90
4759;DHT22;2393;50.560;12.636;2024-01-25T15:22:05;6.10;99.90
4759;DHT22;2393;50.560;12.636;2024-01-25T15:24:35;6.00;99.90
4759;DHT22;2393;50.560;12.636;2024-01-25T15:27:04;6.00;99.90
4759;DHT22;2393;50.560;12.636;2024-01-25T15:29:33;5.90;99.90
4759;DHT22;2393;50.560;12.636;2024-01-25T15:32:04;5.90;99.90
4759;DHT22;2393;50.560;12.636;2024-01-25T15:34:33;5.80;99.90
4759;DHT22;2393;50.560;12.636;2024-01-25T15:37:03;5.70;99.90
4759;DHT22;2393;50.560;12.636;2024-01-25T15:39:32;5.70;99.90
4759;DHT22;2393;50.560;12.636;2024-01-25T15:42:00;5.60;99.90
4759;DHT22;2393;50.560;12.636;2024-01-25T15:44:29;5.60;99.90
4759;DHT22;2393;50.560;12.636;2024-01-25T15:46:58;5.60;99.90
4759;DHT22;2393;50.560;12.636;2024-01-25T15:49:28;5.50;99.90
4759;DHT22;2393;50.560;12.636;2024-01-25T15:51:57;5.40;99.90
4759;DHT22;2393;50.560;12.636;2024-01-25T15:54:26;5.40;99.90
4759;DHT22;2393;50.560;12.636;2024-01-25T15:56:56;5.30;99.90
4759;DHT22;2393;50.560;12.636;2024-01-25T15:59:25;5.40;99.90
4759;DHT22;2393;50.560;12.636;2024-01-25T16:01:54;5.30;99.90
4759;DHT22;2393;50.560;12.636;2024-01-25T16:04:23;5.30;99.90
4759;DHT22;2393;50.560;12.636;2024-01-25T16:06:53;5.20;99.90
4759;DHT22;2393;50.560;12.636;2024-01-25T16:09:22;5.20;99.90
4759;DHT22;2393;50.560;12.636;2024-01-25T16:11:51;5.20;99.90
4759;DHT22;2393;50.560;12.636;2024-01-25T16:14:20;5.20;99.90
4759;DHT22;2393;50.560;12.636;2024-01-25T16:16:49;5.20;99.90
4759;DHT22;2393;50.560;12.636;2024-01-25T16:19:18;5.10;99.90